Latest Coastal Weather Observations for Hay Point

IDQ60701

Issued at 2:32 am EST Friday 5 March 2021 (issued every 10 minutes, with the page automatically refreshed every 10 minutes)

About coastal observations | Map of coastal stations | Coastal observations for QLD | Marine services | Other Formats
Station Details ID: 033317 Name: HAY POINT Lat: -21.29 Lon: 149.30 Height: 7.0 m
Data from the previous 72 hours. | See also: Recent months for locations in Queensland
Date/Time
EST
Wind Sea
Height
m
Swell Vis
km
Cloud Weather Temp
°C
Press
MSL
hPa
Rain since
9am
mm
Dir  Spd
kts
Gust
kts
Height
m
Period
s
Dir
05/02:30am SE 23 28 - - - - - - - - - -
05/02:00am SE 26 31 - - - - - - - - - -
05/01:30am SE 21 26 - - - - - - - - - -
05/01:00am SE 24 30 - - - - - - - - - -
05/12:37am SE 20 30 - - - - - - - - - -
05/12:30am SE 21 28 - - - - - - - - - -
05/12:00am SE 21 30 - - - - - - - - - -
 
Date/Time
EST
Wind Sea
Height
m
Swell Vis
km
Cloud Weather Temp
°C
Press
MSL
hPa
Rain since
9am
mm
Dir  Spd
kts
Gust
kts
Height
m
Period
s
Dir
04/11:30pm SE 20 28 - - - - - - - - - -
04/11:00pm SE 20 27 - - - - - - - - - -
04/10:34pm SE 19 29 - - - - - - - - - -
04/10:30pm SE 20 28 - - - - - - - - - -
04/10:00pm SE 19 27 - - - - - - - - - -
04/09:52pm SE 19 29 - - - - - - - - - -
04/09:30pm SE 21 28 - - - - - - - - - -
04/09:00pm SE 21 29 - - - - - - - - - -
04/08:30pm SE 21 29 - - - - - - - - - -
04/08:00pm SE 23 31 - - - - - - - - - -
04/07:49pm SE 22 32 - - - - - - - - - -
04/07:30pm SE 22 30 - - - - - - - - - -
04/07:13pm SE 22 32 - - - - - - - - - -
04/07:00pm SE 23 31 - - - - - - - - - -
04/06:38pm SE 23 33 - - - - - - - - - -
04/06:30pm SE 23 31 - - - - - - - - - -
04/06:00pm SE 23 31 - - - - - - - - - -
04/05:31pm SE 22 32 - - - - - - - - - -
04/05:30pm SE 22 30 - - - - - - - - - -
04/05:00pm ESE 22 27 - - - - - - - - - -
04/04:30pm ESE 24 32 - - - - - - - - - -
04/04:13pm SE 19 28 - - - - - - - - - -
04/04:00pm SSE 20 28 - - - - - - - - - -
04/03:58pm SE 20 28 - - - - - - - - - -
04/03:45pm ESE 28 38 - - - - - - - - - -
04/03:33pm SE 26 34 - - - - - - - - - -
04/03:30pm SE 23 34 - - - - - - - - - -
04/03:00pm SSE 24 30 - - - - - - - - - -
04/02:49pm SE 25 32 - - - - - - - - - -
04/02:41pm SE 23 29 - - - - - - - - - -
04/02:30pm SSE 22 27 - - - - - - - - - -
04/02:00pm SSE 24 30 - - - - - - - - - -
04/01:30pm SSE 28 33 - - - - - - - - - -
04/01:00pm SSE 27 32 - - - - - - - - - -
04/12:30pm SSE 20 27 - - - - - - - - - -
04/12:00pm SE 24 34 - - - - - - - - - -
04/11:49am SE 24 34 - - - - - - - - - -
04/11:30am SSE 23 27 - - - - - - - - - -
04/11:00am SSE 23 26 - - - - - - - - - -
04/10:30am SSE 21 26 - - - - - - - - - -
04/10:00am SSE 20 24 - - - - - - - - - -
04/09:30am SSE 19 23 - - - - - - - - - -
04/09:00am SSE 18 22 - - - - - - - - - -
04/08:30am S 13 18 - - - - - - - - - -
04/08:00am S 14 18 - - - - - - - - - -
04/07:30am SSE 11 15 - - - - - - - - - -
04/07:21am SSE 16 21 - - - - - - - - - -
04/07:11am SSE 16 24 - - - - - - - - - -
04/07:00am S 14 18 - - - - - - - - - -
04/06:30am S 11 15 - - - - - - - - - -
04/06:00am S 13 16 - - - - - - - - - -
04/05:30am SE 15 19 - - - - - - - - - -
04/05:00am SE 17 22 - - - - - - - - - -
04/04:30am ESE 20 23 - - - - - - - - - -
04/04:00am ESE 17 21 - - - - - - - - - -
04/03:30am SE 15 19 - - - - - - - - - -
04/03:00am SE 15 19 - - - - - - - - - -
04/02:30am SE 15 19 - - - - - - - - - -
04/02:00am SE 15 19 - - - - - - - - - -
04/01:30am SE 15 19 - - - - - - - - - -
04/01:00am SE 14 19 - - - - - - - - - -
04/12:30am SE 12 16 - - - - - - - - - -
04/12:00am SE 13 17 - - - - - - - - - -
 
Date/Time
EST
Wind Sea
Height
m
Swell Vis
km
Cloud Weather Temp
°C
Press
MSL
hPa
Rain since
9am
mm
Dir  Spd
kts
Gust
kts
Height
m
Period
s
Dir
03/11:30pm SE 13 17 - - - - - - - - - -
03/11:00pm ESE 15 18 - - - - - - - - - -
03/10:30pm SE 13 18 - - - - - - - - - -
03/10:00pm SE 13 17 - - - - - - - - - -
03/09:30pm SE 11 16 - - - - - - - - - -
03/09:00pm ESE 13 17 - - - - - - - - - -
03/08:30pm ESE 14 17 - - - - - - - - - -
03/08:00pm ESE 14 17 - - - - - - - - - -
03/07:30pm ESE 18 21 - - - - - - - - - -
03/07:00pm ESE 15 18 - - - - - - - - - -
03/06:30pm ESE 17 19 - - - - - - - - - -
03/06:00pm ESE 16 19 - - - - - - - - - -
03/05:30pm ESE 17 19 - - - - - - - - - -
03/05:00pm ESE 17 20 - - - - - - - - - -
03/04:30pm ESE 17 20 - - - - - - - - - -
03/04:00pm SE 15 19 - - - - - - - - - -
03/03:30pm SE 13 18 - - - - - - - - - -
03/03:00pm SE 14 18 - - - - - - - - - -
03/02:30pm SE 16 20 - - - - - - - - - -
03/02:00pm SE 16 20 - - - - - - - - - -
03/01:30pm SSE 19 23 - - - - - - - - - -
03/01:00pm SE 21 25 - - - - - - - - - -
03/12:30pm SSE 21 23 - - - - - - - - - -
03/12:00pm SSE 20 25 - - - - - - - - - -
03/11:30am SSE 21 24 - - - - - - - - - -
03/11:00am SSE 21 24 - - - - - - - - - -
03/10:30am SSE 23 28 - - - - - - - - - -
03/10:00am SSE 25 28 - - - - - - - - - -
03/09:30am SSE 22 27 - - - - - - - - - -
03/09:00am SSE 18 26 - - - - - - - - - -
03/08:30am SSE 17 21 - - - - - - - - - -
03/08:00am S 15 20 - - - - - - - - - -
03/07:30am S 16 20 - - - - - - - - - -
03/07:00am S 14 17 - - - - - - - - - -
03/06:30am S 15 17 - - - - - - - - - -
03/06:00am S 14 17 - - - - - - - - - -
03/05:30am S 12 15 - - - - - - - - - -
03/05:00am SE 16 21 - - - - - - - - - -
03/04:30am SE 16 20 - - - - - - - - - -
03/04:00am SE 14 18 - - - - - - - - - -
03/03:30am SE 12 17 - - - - - - - - - -
03/03:00am SE 13 18 - - - - - - - - - -
03/02:30am SE 14 17 - - - - - - - - - -
03/02:00am SE 15 20 - - - - - - - - - -
03/01:30am SE 14 17 - - - - - - - - - -
03/01:00am SE 14 18 - - - - - - - - - -
03/12:30am SE 14 18 - - - - - - - - - -
03/12:00am SE 15 19 - - - - - - - - - -
 
Date/Time
EST
Wind Sea
Height
m
Swell Vis
km
Cloud Weather Temp
°C
Press
MSL
hPa
Rain since
9am
mm
Dir  Spd
kts
Gust
kts
Height
m
Period
s
Dir
02/11:30pm ESE 16 19 - - - - - - - - - -
02/11:00pm SE 15 19 - - - - - - - - - -
02/10:30pm SE 14 19 - - - - - - - - - -
02/10:00pm SE 15 19 - - - - - - - - - -
02/09:30pm ESE 18 21 - - - - - - - - - -
02/09:00pm ESE 18 22 - - - - - - - - - -
02/08:30pm ESE 20 24 - - - - - - - - - -
02/08:00pm ESE 19 25 - - - - - - - - - -
02/07:30pm SE 20 26 - - - - - - - - - -
02/07:00pm SE 18 24 - - - - - - - - - -
02/06:30pm SE 17 22 - - - - - - - - - -
02/06:00pm ESE 20 24 - - - - - - - - - -
02/05:30pm SE 17 22 - - - - - - - - - -
02/05:00pm SE 16 21 - - - - - - - - - -
02/04:30pm SE 19 24 - - - - - - - - - -
02/04:00pm SE 17 22 - - - - - - - - - -
02/03:30pm SE 16 20 - - - - - - - - - -
02/03:00pm SE 17 22 - - - - - - - - - -
02/02:30pm SE 18 23 - - - - - - - - - -
02/02:00pm SE 20 25 - - - - - - - - - -
02/01:30pm SE 23 27 - - - - - - - - - -
02/01:00pm SSE 22 27 - - - - - - - - - -
02/12:30pm SSE 22 27 - - - - - - - - - -
02/12:00pm SSE 22 27 - - - - - - - - - -
02/11:30am SSE 22 26 - - - - - - - - - -
02/11:00am SSE 22 26 - - - - - - - - - -
02/10:30am SSE 21 25 - - - - - - - - - -
02/10:00am SSE 20 24 - - - - - - - - - -
02/09:30am SSE 17 20 - - - - - - - - - -
02/09:00am SSE 17 20 - - - - - - - - - -
02/08:55am SE 18 28 - - - - - - - - - -
02/08:47am SE 21 28 - - - - - - - - - -
02/08:30am SSE 21 24 - - - - - - - - - -
02/08:00am SSE 15 19 - - - - - - - - - -
02/07:30am SSE 16 23 - - - - - - - - - -
02/07:00am SE 16 22 - - - - - - - - - -
02/06:30am SE 16 22 - - - - - - - - - -
02/06:00am SE 16 22 - - - - - - - - - -
02/05:30am SE 17 23 - - - - - - - - - -
02/05:00am ESE 18 22 - - - - - - - - - -
02/04:30am ESE 21 25 - - - - - - - - - -
02/04:00am SE 19 23 - - - - - - - - - -
02/03:30am ESE 19 27 - - - - - - - - - -
02/03:00am ESE 21 26 - - - - - - - - - -

Other formats

Comma delimited format used in spreadsheet applications
http://www.bom.gov.au/fwo/IDQ60701/IDQ60701.99367.axf

JavaScript Object Notation format (JSON) in row-major order
http://www.bom.gov.au/fwo/IDQ60701/IDQ60701.99367.json

Data quality

Most of these data are generated automatically and are frequently updated. Quality checks on data are not normally performed. It is possible for incorrect values to appear. Refer to information at About Latest Weather Observations and please check the disclaimer before using these data.